sensor_id;sensor_type;location;lat;lon;timestamp;pressure;altitude;pressure_sealevel;temperature;humidity
68141;BME280;54941;52.220;104.306;2023-02-19T00:01:47;97603.41;;;-13.53;84.90
68141;BME280;54941;52.220;104.306;2023-02-19T00:04:15;97604.84;;;-13.43;85.41
68141;BME280;54941;52.220;104.306;2023-02-19T00:06:44;97608.63;;;-13.25;85.45
68141;BME280;54941;52.220;104.306;2023-02-19T00:09:11;97606.91;;;-13.22;86.04
68141;BME280;54941;52.220;104.306;2023-02-19T00:11:38;97618.66;;;-12.90;85.45
68141;BME280;54941;52.220;104.306;2023-02-19T00:14:05;97626.69;;;-12.79;85.38
68141;BME280;54941;52.220;104.306;2023-02-19T00:16:34;97626.19;;;-12.56;86.48
68141;BME280;54941;52.220;104.306;2023-02-19T00:19:03;97633.31;;;-12.79;85.30
68141;BME280;54941;52.220;104.306;2023-02-19T00:21:30;97633.97;;;-13.11;84.54
68141;BME280;54941;52.220;104.306;2023-02-19T00:24:00;97633.50;;;-13.28;83.69
68141;BME280;54941;52.220;104.306;2023-02-19T00:26:27;97639.72;;;-13.09;84.19
68141;BME280;54941;52.220;104.306;2023-02-19T00:28:55;97644.22;;;-13.26;84.10
68141;BME280;54941;52.220;104.306;2023-02-19T00:31:23;97647.25;;;-13.57;83.90
68141;BME280;54941;52.220;104.306;2023-02-19T00:33:52;97653.59;;;-13.42;83.91
68141;BME280;54941;52.220;104.306;2023-02-19T00:36:19;97654.63;;;-13.54;82.59
68141;BME280;54941;52.220;104.306;2023-02-19T00:38:46;97656.41;;;-13.60;83.41
68141;BME280;54941;52.220;104.306;2023-02-19T00:41:15;97659.84;;;-13.69;83.68
68141;BME280;54941;52.220;104.306;2023-02-19T00:43:41;97667.00;;;-13.54;83.16
68141;BME280;54941;52.220;104.306;2023-02-19T00:46:08;97663.97;;;-13.68;83.91
68141;BME280;54941;52.220;104.306;2023-02-19T00:48:34;97675.78;;;-13.83;82.22
68141;BME280;54941;52.220;104.306;2023-02-19T00:51:00;97671.28;;;-13.62;83.12
68141;BME280;54941;52.220;104.306;2023-02-19T00:53:27;97681.13;;;-13.57;83.09
68141;BME280;54941;52.220;104.306;2023-02-19T00:55:53;97677.91;;;-13.16;82.72
68141;BME280;54941;52.220;104.306;2023-02-19T00:58:21;97686.28;;;-13.23;81.45
68141;BME280;54941;52.220;104.306;2023-02-19T01:00:48;97681.28;;;-13.22;81.83
68141;BME280;54941;52.220;104.306;2023-02-19T01:03:14;97685.78;;;-12.99;81.66
68141;BME280;54941;52.220;104.306;2023-02-19T01:05:40;97680.00;;;-13.00;81.11
68141;BME280;54941;52.220;104.306;2023-02-19T01:08:07;97691.72;;;-13.06;80.36
68141;BME280;54941;52.220;104.306;2023-02-19T01:10:33;97693.56;;;-12.74;80.45
68141;BME280;54941;52.220;104.306;2023-02-19T01:12:59;97695.22;;;-11.98;82.36
68141;BME280;54941;52.220;104.306;2023-02-19T01:15:27;97691.16;;;-11.68;82.02
68141;BME280;54941;52.220;104.306;2023-02-19T01:17:54;97700.34;;;-11.38;81.76
68141;BME280;54941;52.220;104.306;2023-02-19T01:20:20;97697.72;;;-11.01;81.30
68141;BME280;54941;52.220;104.306;2023-02-19T01:22:46;97703.94;;;-11.16;81.27
68141;BME280;54941;52.220;104.306;2023-02-19T01:25:13;97706.72;;;-10.97;81.39
68141;BME280;54941;52.220;104.306;2023-02-19T01:27:39;97704.31;;;-11.00;80.49
68141;BME280;54941;52.220;104.306;2023-02-19T01:30:06;97705.75;;;-10.92;80.96
68141;BME280;54941;52.220;104.306;2023-02-19T01:32:35;97702.03;;;-10.77;80.29
68141;BME280;54941;52.220;104.306;2023-02-19T01:35:01;97714.34;;;-10.72;80.42
68141;BME280;54941;52.220;104.306;2023-02-19T01:37:30;97709.78;;;-10.57;80.08
68141;BME280;54941;52.220;104.306;2023-02-19T01:39:56;97716.97;;;-10.48;80.02
68141;BME280;54941;52.220;104.306;2023-02-19T01:42:23;97717.16;;;-10.26;79.07
68141;BME280;54941;52.220;104.306;2023-02-19T01:45:18;97716.91;;;-10.17;78.25
68141;BME280;54941;52.220;104.306;2023-02-19T01:47:50;97711.38;;;-10.00;77.30
68141;BME280;54941;52.220;104.306;2023-02-19T01:50:17;97719.81;;;-8.54;75.01
68141;BME280;54941;52.220;104.306;2023-02-19T01:52:43;97733.72;;;-7.82;70.92
68141;BME280;54941;52.220;104.306;2023-02-19T01:55:11;97720.81;;;-7.71;67.33
68141;BME280;54941;52.220;104.306;2023-02-19T01:57:42;97737.91;;;-7.82;68.09
68141;BME280;54941;52.220;104.306;2023-02-19T02:00:11;97736.00;;;-7.14;66.36
68141;BME280;54941;52.220;104.306;2023-02-19T02:02:40;97742.31;;;-7.25;64.34
68141;BME280;54941;52.220;104.306;2023-02-19T02:05:16;97736.03;;;-6.17;62.27
68141;BME280;54941;52.220;104.306;2023-02-19T02:07:44;97743.06;;;-4.85;58.87
68141;BME280;54941;52.220;104.306;2023-02-19T02:10:11;97743.75;;;-3.86;55.61
68141;BME280;54941;52.220;104.306;2023-02-19T02:12:39;97746.28;;;-4.50;55.29
68141;BME280;54941;52.220;104.306;2023-02-19T02:15:06;97751.59;;;-5.58;57.79
68141;BME280;54941;52.220;104.306;2023-02-19T02:17:38;97748.91;;;-6.06;59.68
68141;BME280;54941;52.220;104.306;2023-02-19T02:20:26;97751.25;;;-6.03;59.50
68141;BME280;54941;52.220;104.306;2023-02-19T02:23:00;97761.63;;;-5.05;57.46
68141;BME280;54941;52.220;104.306;2023-02-19T02:25:58;97760.50;;;-5.16;56.81
68141;BME280;54941;52.220;104.306;2023-02-19T02:28:42;97770.50;;;-4.98;56.72
68141;BME280;54941;52.220;104.306;2023-02-19T02:31:18;97769.63;;;-4.64;55.79
68141;BME280;54941;52.220;104.306;2023-02-19T02:33:53;97773.81;;;-4.47;55.06
68141;BME280;54941;52.220;104.306;2023-02-19T02:36:26;97779.78;;;-3.09;51.70
68141;BME280;54941;52.220;104.306;2023-02-19T02:38:54;97788.19;;;-4.01;52.40
68141;BME280;54941;52.220;104.306;2023-02-19T02:41:21;97783.91;;;-4.31;54.11
68141;BME280;54941;52.220;104.306;2023-02-19T02:43:48;97794.31;;;-2.98;50.83
68141;BME280;54941;52.220;104.306;2023-02-19T02:46:19;97795.88;;;-1.15;47.42
68141;BME280;54941;52.220;104.306;2023-02-19T02:48:48;97793.41;;;-2.53;49.61
68141;BME280;54941;52.220;104.306;2023-02-19T02:51:20;97789.22;;;-3.12;51.49
68141;BME280;54941;52.220;104.306;2023-02-19T02:53:50;97798.31;;;-4.18;54.12
68141;BME280;54941;52.220;104.306;2023-02-19T02:56:18;97797.00;;;-3.47;53.37
68141;BME280;54941;52.220;104.306;2023-02-19T02:58:46;97796.84;;;-3.44;53.00
68141;BME280;54941;52.220;104.306;2023-02-19T03:01:16;97804.34;;;-3.58;52.14
68141;BME280;54941;52.220;104.306;2023-02-19T03:03:49;97803.59;;;-2.84;51.69
68141;BME280;54941;52.220;104.306;2023-02-19T03:06:20;97800.56;;;-3.19;51.17
68141;BME280;54941;52.220;104.306;2023-02-19T03:08:52;97800.66;;;-3.07;50.73
68141;BME280;54941;52.220;104.306;2023-02-19T03:11:22;97803.25;;;-2.20;49.43
68141;BME280;54941;52.220;104.306;2023-02-19T03:13:50;97798.72;;;-2.43;48.27
68141;BME280;54941;52.220;104.306;2023-02-19T03:16:21;97807.66;;;-2.38;48.83
68141;BME280;54941;52.220;104.306;2023-02-19T03:18:53;97809.56;;;-2.27;49.06
68141;BME280;54941;52.220;104.306;2023-02-19T03:21:23;97803.75;;;-3.31;50.26
68141;BME280;54941;52.220;104.306;2023-02-19T03:23:51;97804.97;;;-2.93;50.07
68141;BME280;54941;52.220;104.306;2023-02-19T03:26:19;97805.72;;;-3.83;50.95
68141;BME280;54941;52.220;104.306;2023-02-19T03:28:47;97808.97;;;-3.97;52.63
68141;BME280;54941;52.220;104.306;2023-02-19T03:31:17;97808.47;;;-4.04;52.96
68141;BME280;54941;52.220;104.306;2023-02-19T03:33:46;97803.50;;;-2.53;49.59
68141;BME280;54941;52.220;104.306;2023-02-19T03:36:15;97808.72;;;-1.85;47.82
68141;BME280;54941;52.220;104.306;2023-02-19T03:38:47;97808.34;;;-2.64;49.51
68141;BME280;54941;52.220;104.306;2023-02-19T03:41:20;97807.84;;;-1.58;47.09
68141;BME280;54941;52.220;104.306;2023-02-19T03:43:52;97811.97;;;-1.03;44.35
68141;BME280;54941;52.220;104.306;2023-02-19T03:46:25;97812.69;;;-1.40;45.13
68141;BME280;54941;52.220;104.306;2023-02-19T03:49:00;97807.06;;;-1.72;45.78
68141;BME280;54941;52.220;104.306;2023-02-19T03:51:35;97801.06;;;-1.98;44.78
68141;BME280;54941;52.220;104.306;2023-02-19T03:54:11;97803.06;;;-2.31;45.83
68141;BME280;54941;52.220;104.306;2023-02-19T03:56:42;97803.75;;;-1.87;45.19
68141;BME280;54941;52.220;104.306;2023-02-19T03:59:15;97808.41;;;-1.40;45.52
68141;BME280;54941;52.220;104.306;2023-02-19T04:01:46;97809.19;;;-3.23;47.50
68141;BME280;54941;52.220;104.306;2023-02-19T04:04:17;97803.31;;;-3.24;47.30
68141;BME280;54941;52.220;104.306;2023-02-19T04:06:48;97806.38;;;-3.03;46.15
68141;BME280;54941;52.220;104.306;2023-02-19T04:09:19;97796.66;;;-2.09;46.52
68141;BME280;54941;52.220;104.306;2023-02-19T04:11:47;97802.06;;;-2.29;44.97
68141;BME280;54941;52.220;104.306;2023-02-19T04:14:18;97803.69;;;-2.56;45.84
68141;BME280;54941;52.220;104.306;2023-02-19T04:16:48;97801.16;;;-2.70;46.34
68141;BME280;54941;52.220;104.306;2023-02-19T04:19:18;97800.03;;;-1.67;43.49
68141;BME280;54941;52.220;104.306;2023-02-19T04:21:48;97801.25;;;-2.01;43.98
68141;BME280;54941;52.220;104.306;2023-02-19T04:24:20;97803.94;;;-2.61;43.10
68141;BME280;54941;52.220;104.306;2023-02-19T04:26:48;97803.13;;;-2.47;44.82
68141;BME280;54941;52.220;104.306;2023-02-19T04:29:14;97802.06;;;-2.29;44.65
68141;BME280;54941;52.220;104.306;2023-02-19T04:31:41;97806.78;;;-1.68;42.66
68141;BME280;54941;52.220;104.306;2023-02-19T04:34:07;97798.56;;;-0.78;42.19
68141;BME280;54941;52.220;104.306;2023-02-19T04:36:34;97802.19;;;-1.75;41.66
68141;BME280;54941;52.220;104.306;2023-02-19T04:39:02;97808.19;;;-2.91;43.77
68141;BME280;54941;52.220;104.306;2023-02-19T04:41:28;97809.88;;;-2.62;43.54
68141;BME280;54941;52.220;104.306;2023-02-19T04:43:55;97808.66;;;-3.44;44.12
68141;BME280;54941;52.220;104.306;2023-02-19T04:46:21;97807.34;;;-2.62;45.77
68141;BME280;54941;52.220;104.306;2023-02-19T04:48:47;97803.53;;;-3.13;45.59
68141;BME280;54941;52.220;104.306;2023-02-19T04:51:14;97801.09;;;-2.26;46.02
68141;BME280;54941;52.220;104.306;2023-02-19T04:53:40;97798.03;;;-2.89;46.19
68141;BME280;54941;52.220;104.306;2023-02-19T04:56:11;97804.47;;;-2.70;46.45
68141;BME280;54941;52.220;104.306;2023-02-19T04:58:38;97811.88;;;-2.97;46.58
68141;BME280;54941;52.220;104.306;2023-02-19T05:01:05;97806.31;;;-3.78;47.38
68141;BME280;54941;52.220;104.306;2023-02-19T05:03:31;97807.16;;;-2.73;48.04
68141;BME280;54941;52.220;104.306;2023-02-19T05:06:01;97805.47;;;-2.02;45.96
68141;BME280;54941;52.220;104.306;2023-02-19T05:08:27;97803.66;;;-2.70;47.05
68141;BME280;54941;52.220;104.306;2023-02-19T05:10:57;97802.03;;;-1.86;45.33
68141;BME280;54941;52.220;104.306;2023-02-19T05:13:24;97805.03;;;-2.36;47.35
68141;BME280;54941;52.220;104.306;2023-02-19T05:15:55;97802.25;;;-2.32;47.49
68141;BME280;54941;52.220;104.306;2023-02-19T05:18:22;97799.81;;;-2.05;45.29
68141;BME280;54941;52.220;104.306;2023-02-19T05:20:49;97797.16;;;-2.88;47.86
68141;BME280;54941;52.220;104.306;2023-02-19T05:23:15;97787.50;;;-3.26;47.56
68141;BME280;54941;52.220;104.306;2023-02-19T05:25:42;97784.84;;;-3.09;47.58
68141;BME280;54941;52.220;104.306;2023-02-19T05:28:08;97784.91;;;-4.18;50.19
68141;BME280;54941;52.220;104.306;2023-02-19T05:30:36;97786.88;;;-3.61;50.04
68141;BME280;54941;52.220;104.306;2023-02-19T05:33:02;97783.63;;;-3.78;49.05
68141;BME280;54941;52.220;104.306;2023-02-19T05:35:29;97775.50;;;-3.52;49.40
68141;BME280;54941;52.220;104.306;2023-02-19T05:37:55;97774.28;;;-2.71;46.56
68141;BME280;54941;52.220;104.306;2023-02-19T05:40:21;97769.22;;;-3.45;48.99
68141;BME280;54941;52.220;104.306;2023-02-19T05:42:48;97764.59;;;-3.53;50.40
68141;BME280;54941;52.220;104.306;2023-02-19T05:45:14;97764.22;;;-3.76;49.18
68141;BME280;54941;52.220;104.306;2023-02-19T05:47:42;97761.44;;;-3.11;49.33
68141;BME280;54941;52.220;104.306;2023-02-19T05:50:08;97751.84;;;-2.48;48.19
68141;BME280;54941;52.220;104.306;2023-02-19T05:52:35;97755.81;;;-2.72;48.32
68141;BME280;54941;52.220;104.306;2023-02-19T05:55:01;97757.00;;;-2.35;46.44
68141;BME280;54941;52.220;104.306;2023-02-19T05:57:29;97765.50;;;-2.94;48.09
68141;BME280;54941;52.220;104.306;2023-02-19T05:59:56;97762.50;;;-3.60;48.34
68141;BME280;54941;52.220;104.306;2023-02-19T06:02:23;97756.41;;;-3.72;48.47
68141;BME280;54941;52.220;104.306;2023-02-19T06:04:51;97767.97;;;-3.99;48.24
68141;BME280;54941;52.220;104.306;2023-02-19T06:07:17;97754.72;;;-4.18;50.33
68141;BME280;54941;52.220;104.306;2023-02-19T06:09:43;97757.44;;;-4.38;51.45
68141;BME280;54941;52.220;104.306;2023-02-19T06:12:10;97755.59;;;-3.72;51.15
68141;BME280;54941;52.220;104.306;2023-02-19T06:14:36;97756.84;;;-4.76;51.55
68141;BME280;54941;52.220;104.306;2023-02-19T06:17:02;97754.72;;;-4.18;50.31
68141;BME280;54941;52.220;104.306;2023-02-19T06:19:29;97752.91;;;-4.16;50.71
68141;BME280;54941;52.220;104.306;2023-02-19T06:21:57;97755.06;;;-3.77;50.78
68141;BME280;54941;52.220;104.306;2023-02-19T06:24:23;97755.28;;;-3.98;50.41
68141;BME280;54941;52.220;104.306;2023-02-19T06:26:49;97743.63;;;-4.47;51.55
68141;BME280;54941;52.220;104.306;2023-02-19T06:29:16;97741.91;;;-4.47;51.67
68141;BME280;54941;52.220;104.306;2023-02-19T06:31:42;97742.19;;;-4.20;51.50
68141;BME280;54941;52.220;104.306;2023-02-19T06:34:08;97744.97;;;-4.40;52.50
68141;BME280;54941;52.220;104.306;2023-02-19T06:36:35;97737.81;;;-4.98;54.74
68141;BME280;54941;52.220;104.306;2023-02-19T06:39:04;97742.13;;;-5.34;54.88
68141;BME280;54941;52.220;104.306;2023-02-19T06:41:31;97736.03;;;-5.13;54.39
68141;BME280;54941;52.220;104.306;2023-02-19T06:43:57;97732.44;;;-5.24;54.48
68141;BME280;54941;52.220;104.306;2023-02-19T06:46:24;97725.34;;;-4.66;53.96
68141;BME280;54941;52.220;104.306;2023-02-19T06:48:50;97731.91;;;-5.31;54.96
68141;BME280;54941;52.220;104.306;2023-02-19T06:51:18;97730.66;;;-5.05;55.27
68141;BME280;54941;52.220;104.306;2023-02-19T06:53:44;97731.22;;;-4.50;54.80
68141;BME280;54941;52.220;104.306;2023-02-19T06:56:23;97727.84;;;-4.99;55.01
68141;BME280;54941;52.220;104.306;2023-02-19T06:58:50;97729.25;;;-5.45;55.93
68141;BME280;54941;52.220;104.306;2023-02-19T07:01:17;97728.50;;;-5.13;54.15
68141;BME280;54941;52.220;104.306;2023-02-19T07:03:43;97731.19;;;-5.16;55.17
68141;BME280;54941;52.220;104.306;2023-02-19T07:06:09;97728.41;;;-4.77;54.55
68141;BME280;54941;52.220;104.306;2023-02-19T07:08:36;97717.22;;;-5.38;55.29
68141;BME280;54941;52.220;104.306;2023-02-19T07:11:02;97722.31;;;-5.23;54.64
68141;BME280;54941;52.220;104.306;2023-02-19T07:13:30;97716.53;;;-5.08;54.53
68141;BME280;54941;52.220;104.306;2023-02-19T07:15:58;97715.22;;;-5.15;55.58
68141;BME280;54941;52.220;104.306;2023-02-19T07:18:25;97717.19;;;-5.04;54.77
68141;BME280;54941;52.220;104.306;2023-02-19T07:20:51;97725.72;;;-5.24;55.53
68141;BME280;54941;52.220;104.306;2023-02-19T07:23:18;97725.41;;;-5.01;54.71
68141;BME280;54941;52.220;104.306;2023-02-19T07:25:44;97726.66;;;-4.59;54.27
68141;BME280;54941;52.220;104.306;2023-02-19T07:28:10;97729.19;;;-4.59;54.66
68141;BME280;54941;52.220;104.306;2023-02-19T07:30:38;97723.22;;;-4.91;54.86
68141;BME280;54941;52.220;104.306;2023-02-19T07:33:05;97719.50;;;-5.00;54.99
68141;BME280;54941;52.220;104.306;2023-02-19T07:35:31;97724.97;;;-5.09;55.17
68141;BME280;54941;52.220;104.306;2023-02-19T07:37:57;97724.03;;;-5.41;54.61
68141;BME280;54941;52.220;104.306;2023-02-19T07:40:24;97726.38;;;-5.37;56.33
68141;BME280;54941;52.220;104.306;2023-02-19T07:42:50;97720.13;;;-5.29;55.76
68141;BME280;54941;52.220;104.306;2023-02-19T07:45:17;97720.25;;;-5.32;55.31
68141;BME280;54941;52.220;104.306;2023-02-19T07:47:45;97724.28;;;-5.81;56.52
68141;BME280;54941;52.220;104.306;2023-02-19T07:50:11;97721.22;;;-5.52;56.36
68141;BME280;54941;52.220;104.306;2023-02-19T07:52:37;97723.03;;;-5.21;55.88
68141;BME280;54941;52.220;104.306;2023-02-19T07:55:04;97721.41;;;-5.05;55.93
68141;BME280;54941;52.220;104.306;2023-02-19T07:57:30;97715.72;;;-5.08;55.19
68141;BME280;54941;52.220;104.306;2023-02-19T07:59:57;97718.31;;;-5.27;54.94
68141;BME280;54941;52.220;104.306;2023-02-19T08:02:23;97715.00;;;-5.45;56.39
68141;BME280;54941;52.220;104.306;2023-02-19T08:04:51;97709.38;;;-5.50;56.19
68141;BME280;54941;52.220;104.306;2023-02-19T08:07:17;97713.00;;;-5.38;55.04
68141;BME280;54941;52.220;104.306;2023-02-19T08:09:44;97716.41;;;-5.56;56.64
68141;BME280;54941;52.220;104.306;2023-02-19T08:13:57;97712.94;;;-5.36;55.15
68141;BME280;54941;52.220;104.306;2023-02-19T08:16:23;97708.19;;;-5.60;54.68
68141;BME280;54941;52.220;104.306;2023-02-19T08:18:49;97720.41;;;-5.52;53.92
68141;BME280;54941;52.220;104.306;2023-02-19T08:21:16;97708.75;;;-5.72;54.35
68141;BME280;54941;52.220;104.306;2023-02-19T08:23:42;97710.09;;;-5.65;54.53
68141;BME280;54941;52.220;104.306;2023-02-19T08:26:09;97703.38;;;-5.81;54.57
68141;BME280;54941;52.220;104.306;2023-02-19T08:28:35;97693.56;;;-5.86;55.08
68141;BME280;54941;52.220;104.306;2023-02-19T08:31:05;97695.19;;;-5.85;55.23
68141;BME280;54941;52.220;104.306;2023-02-19T08:33:32;97693.34;;;-5.81;55.44
68141;BME280;54941;52.220;104.306;2023-02-19T08:36:01;97698.34;;;-5.81;55.48
68141;BME280;54941;52.220;104.306;2023-02-19T08:38:27;97698.34;;;-5.81;55.43
68141;BME280;54941;52.220;104.306;2023-02-19T08:40:54;97693.63;;;-6.05;55.97
68141;BME280;54941;52.220;104.306;2023-02-19T08:43:20;97694.38;;;-5.85;56.64
68141;BME280;54941;52.220;104.306;2023-02-19T08:45:46;97690.53;;;-5.93;57.10
68141;BME280;54941;52.220;104.306;2023-02-19T08:48:14;97691.03;;;-6.03;55.93
68141;BME280;54941;52.220;104.306;2023-02-19T08:50:41;97691.09;;;-6.05;56.11
68141;BME280;54941;52.220;104.306;2023-02-19T08:53:07;97688.06;;;-6.11;56.49
68141;BME280;54941;52.220;104.306;2023-02-19T08:55:36;97688.47;;;-6.20;56.28
68141;BME280;54941;52.220;104.306;2023-02-19T08:58:02;97685.44;;;-6.27;56.73
68141;BME280;54941;52.220;104.306;2023-02-19T09:00:29;97691.66;;;-6.17;56.57
68141;BME280;54941;52.220;104.306;2023-02-19T09:02:57;97689.88;;;-6.32;56.26
68141;BME280;54941;52.220;104.306;2023-02-19T09:05:25;97695.31;;;-6.24;56.07
68141;BME280;54941;52.220;104.306;2023-02-19T09:07:51;97686.06;;;-6.22;56.27
68141;BME280;54941;52.220;104.306;2023-02-19T09:10:18;97686.66;;;-6.35;56.44
68141;BME280;54941;52.220;104.306;2023-02-19T09:12:44;97687.88;;;-6.25;56.96
68141;BME280;54941;52.220;104.306;2023-02-19T09:15:10;97690.94;;;-6.37;56.59
68141;BME280;54941;52.220;104.306;2023-02-19T09:17:37;97696.56;;;-6.32;56.86
68141;BME280;54941;52.220;104.306;2023-02-19T09:20:04;97700.09;;;-6.36;56.51
68141;BME280;54941;52.220;104.306;2023-02-19T09:22:32;97696.56;;;-6.32;56.36
68141;BME280;54941;52.220;104.306;2023-02-19T09:24:58;97698.78;;;-6.45;55.58
68141;BME280;54941;52.220;104.306;2023-02-19T09:27:24;97693.09;;;-6.49;56.69
68141;BME280;54941;52.220;104.306;2023-02-19T09:29:51;97698.25;;;-6.52;56.90
68141;BME280;54941;52.220;104.306;2023-02-19T09:32:17;97691.22;;;-6.44;56.41
68141;BME280;54941;52.220;104.306;2023-02-19T09:34:43;97692.09;;;-6.45;55.79
68141;BME280;54941;52.220;104.306;2023-02-19T09:37:10;97694.41;;;-6.40;55.88
68141;BME280;54941;52.220;104.306;2023-02-19T09:39:38;97689.44;;;-6.42;55.81
68141;BME280;54941;52.220;104.306;2023-02-19T09:42:11;97689.91;;;-6.52;56.25
68141;BME280;54941;52.220;104.306;2023-02-19T09:44:41;97691.69;;;-6.54;55.97
68141;BME280;54941;52.220;104.306;2023-02-19T09:47:16;97697.38;;;-6.51;56.01
68141;BME280;54941;52.220;104.306;2023-02-19T09:49:45;97696.63;;;-6.53;55.94
68141;BME280;54941;52.220;104.306;2023-02-19T09:52:18;97692.09;;;-6.63;55.60
68141;BME280;54941;52.220;104.306;2023-02-19T09:54:51;97697.91;;;-6.81;56.39
68141;BME280;54941;52.220;104.306;2023-02-19T09:57:20;97692.00;;;-6.80;57.25
68141;BME280;54941;52.220;104.306;2023-02-19T09:59:49;97691.31;;;-7.03;58.23
68141;BME280;54941;52.220;104.306;2023-02-19T10:02:17;97685.34;;;-7.00;57.47
68141;BME280;54941;52.220;104.306;2023-02-19T10:04:45;97684.53;;;-7.01;56.88
68141;BME280;54941;52.220;104.306;2023-02-19T10:07:12;97685.94;;;-7.14;57.03
68141;BME280;54941;52.220;104.306;2023-02-19T10:09:39;97685.28;;;-7.19;57.67
68141;BME280;54941;52.220;104.306;2023-02-19T10:12:14;97682.28;;;-7.27;58.08
68141;BME280;54941;52.220;104.306;2023-02-19T10:14:42;97688.66;;;-8.02;59.89
68141;BME280;54941;52.220;104.306;2023-02-19T10:17:18;97685.78;;;-9.05;62.47
68141;BME280;54941;52.220;104.306;2023-02-19T10:19:46;97689.59;;;-9.43;64.94
68141;BME280;54941;52.220;104.306;2023-02-19T10:22:12;97687.50;;;-9.55;66.30
68141;BME280;54941;52.220;104.306;2023-02-19T10:24:39;97688.66;;;-9.65;66.55
68141;BME280;54941;52.220;104.306;2023-02-19T10:27:12;97686.91;;;-9.63;66.79
68141;BME280;54941;52.220;104.306;2023-02-19T10:29:39;97686.31;;;-9.69;66.86
68141;BME280;54941;52.220;104.306;2023-02-19T10:32:16;97685.38;;;-9.93;67.28
68141;BME280;54941;52.220;104.306;2023-02-19T10:34:43;97691.78;;;-10.12;67.76
68141;BME280;54941;52.220;104.306;2023-02-19T10:37:12;97695.75;;;-10.05;68.69
68141;BME280;54941;52.220;104.306;2023-02-19T10:39:42;97691.50;;;-10.28;68.88
68141;BME280;54941;52.220;104.306;2023-02-19T10:42:16;97688.94;;;-10.54;69.22
68141;BME280;54941;52.220;104.306;2023-02-19T10:44:45;97685.59;;;-10.53;69.81
68141;BME280;54941;52.220;104.306;2023-02-19T10:47:16;97686.72;;;-10.35;69.16
68141;BME280;54941;52.220;104.306;2023-02-19T10:49:43;97688.22;;;-10.58;70.08
68141;BME280;54941;52.220;104.306;2023-02-19T10:52:13;97691.44;;;-10.83;70.60
68141;BME280;54941;52.220;104.306;2023-02-19T10:54:40;97689.84;;;-11.17;70.84
68141;BME280;54941;52.220;104.306;2023-02-19T10:57:28;97694.78;;;-10.86;71.48
68141;BME280;54941;52.220;104.306;2023-02-19T10:59:56;97694.75;;;-10.83;71.54
68141;BME280;54941;52.220;104.306;2023-02-19T11:02:24;97697.09;;;-11.09;71.44
68141;BME280;54941;52.220;104.306;2023-02-19T11:05:13;97698.78;;;-11.10;71.61
68141;BME280;54941;52.220;104.306;2023-02-19T11:07:43;97706.75;;;-11.29;72.24
68141;BME280;54941;52.220;104.306;2023-02-19T11:10:18;97699.09;;;-11.54;72.83
68141;BME280;54941;52.220;104.306;2023-02-19T11:12:47;97706.72;;;-11.28;72.04
68141;BME280;54941;52.220;104.306;2023-02-19T11:15:19;97706.53;;;-11.20;72.84
68141;BME280;54941;52.220;104.306;2023-02-19T11:17:54;97697.34;;;-11.18;72.83
68141;BME280;54941;52.220;104.306;2023-02-19T11:20:23;97689.84;;;-11.17;72.16
68141;BME280;54941;52.220;104.306;2023-02-19T11:22:49;97698.25;;;-11.53;72.57
68141;BME280;54941;52.220;104.306;2023-02-19T11:25:20;97693.28;;;-11.53;73.61
68141;BME280;54941;52.220;104.306;2023-02-19T11:27:56;97701.41;;;-11.80;74.18
68141;BME280;54941;52.220;104.306;2023-02-19T11:30:40;97697.91;;;-12.07;73.44
68141;BME280;54941;52.220;104.306;2023-02-19T11:33:19;97703.50;;;-12.36;73.63
68141;BME280;54941;52.220;104.306;2023-02-19T11:35:46;97702.88;;;-12.07;74.60
68141;BME280;54941;52.220;104.306;2023-02-19T11:38:14;97700.88;;;-11.93;74.90
68141;BME280;54941;52.220;104.306;2023-02-19T11:40:49;97701.88;;;-11.66;73.79
68141;BME280;54941;52.220;104.306;2023-02-19T11:43:32;97703.09;;;-12.16;74.07
68141;BME280;54941;52.220;104.306;2023-02-19T11:46:05;97696.22;;;-12.83;73.47
68141;BME280;54941;52.220;104.306;2023-02-19T11:48:51;97701.16;;;-12.82;75.58
68141;BME280;54941;52.220;104.306;2023-02-19T11:51:37;97698.72;;;-12.83;76.37
68141;BME280;54941;52.220;104.306;2023-02-19T11:54:20;97695.06;;;-12.27;76.55
68141;BME280;54941;52.220;104.306;2023-02-19T11:56:56;97690.50;;;-12.46;76.84
68141;BME280;54941;52.220;104.306;2023-02-19T11:59:34;97690.25;;;-12.35;76.36
68141;BME280;54941;52.220;104.306;2023-02-19T12:02:31;97681.97;;;-12.74;76.04
68141;BME280;54941;52.220;104.306;2023-02-19T12:05:26;97684.94;;;-12.57;76.07
68141;BME280;54941;52.220;104.306;2023-02-19T12:11:10;97690.16;;;-13.10;76.37
68141;BME280;54941;52.220;104.306;2023-02-19T12:13:48;97692.53;;;-12.64;76.81
68141;BME280;54941;52.220;104.306;2023-02-19T12:16:21;97688.03;;;-12.49;77.11
68141;BME280;54941;52.220;104.306;2023-02-19T12:22:01;97691.88;;;-12.72;76.13
68141;BME280;54941;52.220;104.306;2023-02-19T12:24:54;97692.31;;;-12.94;76.32
68141;BME280;54941;52.220;104.306;2023-02-19T12:27:36;97695.25;;;-12.76;76.08
68141;BME280;54941;52.220;104.306;2023-02-19T12:30:20;97694.34;;;-12.72;75.76
68141;BME280;54941;52.220;104.306;2023-02-19T12:33:04;97691.13;;;-12.76;75.20
68141;BME280;54941;52.220;104.306;2023-02-19T12:35:46;97689.53;;;-12.80;75.19
68141;BME280;54941;52.220;104.306;2023-02-19T12:38:20;97695.94;;;-12.68;76.03
68141;BME280;54941;52.220;104.306;2023-02-19T12:41:00;97701.00;;;-12.34;75.66
68141;BME280;54941;52.220;104.306;2023-02-19T12:43:31;97695.97;;;-13.11;75.31
68141;BME280;54941;52.220;104.306;2023-02-19T12:46:02;97693.78;;;-13.26;74.52
68141;BME280;54941;52.220;104.306;2023-02-19T12:48:35;97687.06;;;-13.21;75.41
68141;BME280;54941;52.220;104.306;2023-02-19T12:51:11;97681.25;;;-13.65;76.65
68141;BME280;54941;52.220;104.306;2023-02-19T12:53:44;97684.31;;;-13.52;77.42
68141;BME280;54941;52.220;104.306;2023-02-19T12:56:18;97687.59;;;-13.49;76.26
68141;BME280;54941;52.220;104.306;2023-02-19T12:58:49;97690.25;;;-13.61;77.20